createdAt,value
2023-05-14T00:02:06.053Z,97213.00
2023-05-14T00:04:32.982Z,97213.84
2023-05-14T00:06:59.842Z,97212.00
2023-05-14T00:09:27.005Z,97205.19
2023-05-14T00:11:53.774Z,97208.84
2023-05-14T00:14:20.511Z,97200.88
2023-05-14T00:16:47.235Z,97197.56
2023-05-14T00:19:14.555Z,97209.84
2023-05-14T00:21:41.509Z,97200.22
2023-05-14T00:24:08.334Z,97204.53
2023-05-14T00:26:35.086Z,97197.72
2023-05-14T00:29:02.471Z,97201.03
2023-05-14T00:31:29.212Z,97198.53
2023-05-14T00:33:56.095Z,97205.00
2023-05-14T00:36:22.817Z,97196.03
2023-05-14T00:38:49.951Z,97201.53
2023-05-14T00:41:16.655Z,97196.03
2023-05-14T00:43:43.389Z,97198.03
2023-05-14T00:46:10.171Z,97207.81
2023-05-14T00:48:36.889Z,97201.69
2023-05-14T00:51:03.834Z,97208.66
2023-05-14T00:53:30.841Z,97205.31
2023-05-14T00:55:58.612Z,97201.84
2023-05-14T00:58:25.941Z,97184.56
2023-05-14T01:00:52.759Z,97200.34
2023-05-14T01:03:19.611Z,97187.06
2023-05-14T01:06:26.251Z,97190.72
2023-05-14T01:09:01.951Z,97188.88
2023-05-14T01:11:46.214Z,97185.56
2023-05-14T01:14:47.624Z,97183.56
2023-05-14T01:17:16.455Z,97182.91
2023-05-14T01:19:45.063Z,97180.09
2023-05-14T01:22:12.142Z,97178.41
2023-05-14T01:24:39.734Z,97168.94
2023-05-14T01:27:27.956Z,97164.63
2023-05-14T01:30:15.377Z,97175.09
2023-05-14T01:32:45.336Z,97170.78
2023-05-14T01:35:13.177Z,97169.94
2023-05-14T01:37:42.021Z,97170.94
2023-05-14T01:40:11.620Z,97166.63
2023-05-14T01:42:38.719Z,97168.44
2023-05-14T01:45:06.215Z,97169.13
2023-05-14T01:47:32.966Z,97165.63
2023-05-14T01:49:59.710Z,97164.97
2023-05-14T01:52:26.429Z,97158.81
2023-05-14T01:54:53.180Z,97164.13
2023-05-14T01:57:19.915Z,97168.59
2023-05-14T01:59:46.634Z,97163.28
2023-05-14T02:02:13.371Z,97169.59
2023-05-14T02:04:40.178Z,97165.13
2023-05-14T02:07:06.951Z,97173.38
2023-05-14T02:09:33.851Z,97167.22
2023-05-14T02:12:01.008Z,97165.41
2023-05-14T02:14:27.976Z,97158.44
2023-05-14T02:16:54.712Z,97164.91
2023-05-14T02:19:21.434Z,97154.97
2023-05-14T02:21:48.542Z,97157.63
2023-05-14T02:24:15.395Z,97147.00
2023-05-14T02:26:42.583Z,97149.00
2023-05-14T02:29:09.376Z,97151.66
2023-05-14T02:31:36.321Z,97150.81
2023-05-14T02:34:04.148Z,97149.81
2023-05-14T02:36:30.984Z,97143.00
2023-05-14T02:39:00.036Z,97148.31
2023-05-14T02:41:27.595Z,97144.00
2023-05-14T02:43:54.962Z,97150.31
2023-05-14T02:46:22.044Z,97147.50
2023-05-14T02:48:48.973Z,97143.00
2023-05-14T02:51:16.684Z,97144.16
2023-05-14T02:53:43.444Z,97138.03
2023-05-14T02:56:10.325Z,97141.66
2023-05-14T02:58:37.082Z,97136.38
2023-05-14T03:01:03.993Z,97132.72
2023-05-14T03:03:31.607Z,97127.56
2023-05-14T03:05:58.852Z,97128.41
2023-05-14T03:08:25.956Z,97135.38
2023-05-14T03:10:52.739Z,97140.00
2023-05-14T03:13:20.912Z,97133.03
2023-05-14T03:15:47.757Z,97125.25
2023-05-14T03:18:15.330Z,97122.75
2023-05-14T03:20:42.403Z,97128.88
2023-05-14T03:23:09.145Z,97120.75
2023-05-14T03:25:35.858Z,97126.22
2023-05-14T03:28:03.744Z,97135.84
2023-05-14T03:30:30.725Z,97128.88
2023-05-14T03:32:57.826Z,97129.03
2023-05-14T03:35:24.698Z,97130.69
2023-05-14T03:37:53.151Z,97126.38
2023-05-14T03:40:19.984Z,97122.91
2023-05-14T03:42:46.777Z,97128.22
2023-05-14T03:45:13.461Z,97125.56
2023-05-14T03:47:40.264Z,97126.69
2023-05-14T03:50:08.198Z,97126.69
2023-05-14T03:52:34.942Z,97115.25
2023-05-14T03:55:01.759Z,97109.28
2023-05-14T03:57:29.236Z,97113.59
2023-05-14T03:59:55.984Z,97113.59
2023-05-14T04:02:22.740Z,97111.78
2023-05-14T04:04:49.604Z,97115.25
2023-05-14T04:07:16.385Z,97108.44
2023-05-14T04:09:43.105Z,97098.50
2023-05-14T04:12:10.013Z,97102.97
2023-05-14T04:14:36.723Z,97111.94
2023-05-14T04:17:03.934Z,97101.31
2023-05-14T04:19:30.652Z,97109.97
2023-05-14T04:21:57.404Z,97106.47
2023-05-14T04:24:24.184Z,97111.09
2023-05-14T04:26:50.866Z,97107.63
2023-05-14T04:29:17.803Z,97106.63
2023-05-14T04:31:44.833Z,97105.81
2023-05-14T04:34:11.632Z,97105.81
2023-05-14T04:36:38.426Z,97108.28
2023-05-14T04:39:06.215Z,97103.81
2023-05-14T04:41:33.093Z,97108.97
2023-05-14T04:44:02.059Z,97100.34
2023-05-14T04:46:28.995Z,97101.16
2023-05-14T04:48:56.752Z,97099.34
2023-05-14T04:51:24.144Z,97102.97
2023-05-14T04:53:50.820Z,97114.44
2023-05-14T04:56:17.662Z,97111.78
2023-05-14T04:58:44.395Z,97109.13
2023-05-14T05:01:11.558Z,97113.28
2023-05-14T05:03:38.421Z,97114.94
2023-05-14T05:06:05.306Z,97120.09
2023-05-14T05:08:32.049Z,97121.06
2023-05-14T05:10:58.725Z,97123.72
2023-05-14T05:13:25.458Z,97126.06
2023-05-14T05:15:52.204Z,97123.41
2023-05-14T05:18:18.902Z,97129.56
2023-05-14T05:20:45.605Z,97120.59
2023-05-14T05:23:12.319Z,97126.06
2023-05-14T05:25:39.079Z,97120.91
2023-05-14T05:28:05.815Z,97125.25
2023-05-14T05:30:32.547Z,97118.94
2023-05-14T05:32:59.350Z,97112.81
2023-05-14T05:35:26.138Z,97107.66
2023-05-14T05:37:52.942Z,97121.44
2023-05-14T05:40:19.728Z,97120.59
2023-05-14T05:42:46.430Z,97119.78
2023-05-14T05:45:13.193Z,97121.44
2023-05-14T05:47:40.152Z,97120.59
2023-05-14T05:50:07.771Z,97123.09
2023-05-14T05:52:34.542Z,97125.59
2023-05-14T05:55:01.284Z,97115.13
2023-05-14T05:57:28.337Z,97119.44
2023-05-14T05:59:55.077Z,97115.66
2023-05-14T06:02:22.063Z,97114.81
2023-05-14T06:04:48.990Z,97115.50
2023-05-14T06:07:15.838Z,97122.31
2023-05-14T06:09:42.636Z,97111.84
2023-05-14T06:12:09.529Z,97111.00
2023-05-14T06:14:36.851Z,97114.16
2023-05-14T06:17:03.698Z,97113.03
2023-05-14T06:19:30.718Z,97114.81
2023-05-14T06:21:57.540Z,97129.78
2023-05-14T06:24:24.262Z,97117.63
2023-05-14T06:26:51.047Z,97128.09
2023-05-14T06:29:17.788Z,97115.81
2023-05-14T06:31:44.543Z,97123.78
2023-05-14T06:34:11.563Z,97127.97
2023-05-14T06:36:38.279Z,97129.78
2023-05-14T06:39:05.111Z,97127.13
2023-05-14T06:41:32.035Z,97125.31
2023-05-14T06:43:58.760Z,97123.31
2023-05-14T06:46:25.524Z,97119.50
2023-05-14T06:48:52.294Z,97123.16
2023-05-14T06:51:19.041Z,97124.50
2023-05-14T06:53:46.997Z,97127.16
2023-05-14T06:56:14.903Z,97135.94
2023-05-14T06:58:41.643Z,97127.31
2023-05-14T07:01:08.540Z,97129.81
2023-05-14T07:03:35.269Z,97125.19
2023-05-14T07:06:01.967Z,97138.13
2023-05-14T07:08:28.850Z,97133.50
2023-05-14T07:10:56.385Z,97134.31
2023-05-14T07:13:25.270Z,97143.78
2023-05-14T07:15:55.758Z,97136.50
2023-05-14T07:18:24.341Z,97133.00
2023-05-14T07:20:51.100Z,97128.38
2023-05-14T07:23:19.745Z,97124.72
2023-05-14T07:25:46.820Z,97113.25
2023-05-14T07:28:13.635Z,97116.09
2023-05-14T07:30:40.444Z,97117.91
2023-05-14T07:33:07.351Z,97112.59
2023-05-14T07:35:34.284Z,97109.09
2023-05-14T07:38:01.100Z,97109.78
2023-05-14T07:40:30.476Z,97120.41
2023-05-14T07:42:57.251Z,97114.75
2023-05-14T07:45:24.070Z,97111.94
2023-05-14T07:47:52.378Z,97109.97
2023-05-14T07:50:19.759Z,97113.13
2023-05-14T07:52:46.531Z,97107.66
2023-05-14T07:55:13.887Z,97109.47
2023-05-14T07:57:40.916Z,97111.13
2023-05-14T08:00:08.496Z,97109.31
2023-05-14T08:02:35.291Z,97107.16
2023-05-14T08:05:02.141Z,97112.31
2023-05-14T08:07:30.266Z,97101.69
2023-05-14T08:09:57.101Z,97099.69
2023-05-14T08:12:23.892Z,97094.06
2023-05-14T08:14:50.629Z,97082.44
2023-05-14T08:17:17.557Z,97080.28
2023-05-14T08:19:44.592Z,97079.81
2023-05-14T08:22:11.394Z,97076.16
2023-05-14T08:24:38.076Z,97071.50
2023-05-14T08:27:05.120Z,97064.53
2023-05-14T08:29:31.896Z,97061.88
2023-05-14T08:32:00.337Z,97064.53
2023-05-14T08:34:30.536Z,97060.03
2023-05-14T08:36:57.236Z,97056.22
2023-05-14T08:39:23.937Z,97057.88
2023-05-14T08:41:51.846Z,97053.72
2023-05-14T08:44:20.261Z,97058.53
2023-05-14T08:46:49.962Z,97054.41
2023-05-14T08:49:43.254Z,97054.06
2023-05-14T08:52:10.908Z,97064.38
2023-05-14T08:54:38.241Z,97055.91
2023-05-14T08:57:05.680Z,97055.56
2023-05-14T08:59:32.561Z,97048.91
2023-05-14T09:02:02.830Z,97051.91
2023-05-14T09:04:31.316Z,97054.06
2023-05-14T09:07:01.702Z,97047.91
2023-05-14T09:09:29.031Z,97044.28
2023-05-14T09:11:55.853Z,97033.31
2023-05-14T09:14:22.846Z,97031.00
2023-05-14T09:16:51.816Z,97035.47
2023-05-14T09:19:19.717Z,97028.34
2023-05-14T09:21:48.025Z,97030.00
2023-05-14T09:24:26.621Z,97029.66
2023-05-14T09:26:54.917Z,97024.81
2023-05-14T09:29:21.951Z,97021.34
2023-05-14T09:31:51.397Z,97028.97
2023-05-14T09:34:32.402Z,97029.28
2023-05-14T09:36:59.689Z,97023.47
2023-05-14T09:39:27.178Z,97029.28
2023-05-14T09:41:54.983Z,97022.66
2023-05-14T09:44:24.076Z,97017.00
2023-05-14T09:46:51.493Z,97011.03
2023-05-14T09:49:18.790Z,97014.84
2023-05-14T09:51:45.610Z,97011.84
2023-05-14T09:54:12.403Z,97004.53
2023-05-14T09:56:39.925Z,97005.53
2023-05-14T09:59:06.824Z,97011.03
2023-05-14T10:01:34.521Z,97009.34
2023-05-14T10:04:04.403Z,97002.72
2023-05-14T10:06:36.522Z,96993.25
2023-05-14T10:09:05.004Z,96998.56
2023-05-14T10:11:37.505Z,96997.56
2023-05-14T10:14:12.636Z,96992.06
2023-05-14T10:16:44.289Z,96993.25
2023-05-14T10:19:12.944Z,96993.59
2023-05-14T10:21:42.586Z,96988.94
2023-05-14T10:24:10.205Z,96987.75
2023-05-14T10:26:39.638Z,96987.25
2023-05-14T10:29:07.284Z,96986.56
2023-05-14T10:31:47.831Z,96982.41
2023-05-14T10:34:44.453Z,96981.38
2023-05-14T10:37:22.285Z,96975.22
2023-05-14T10:39:59.788Z,96982.38
2023-05-14T10:42:36.102Z,96988.34
2023-05-14T10:45:08.514Z,96973.91
2023-05-14T10:47:40.257Z,96969.06
2023-05-14T10:50:09.187Z,96978.53
2023-05-14T10:52:36.588Z,96959.25
2023-05-14T10:55:08.439Z,96971.22
2023-05-14T10:57:38.236Z,96968.69
2023-05-14T11:00:10.904Z,96966.63
2023-05-14T11:02:39.872Z,96964.97
2023-05-14T11:05:09.423Z,96964.63
2023-05-14T11:07:41.884Z,96958.13
2023-05-14T11:10:12.842Z,96963.78
2023-05-14T11:12:45.074Z,96948.84
2023-05-14T11:15:14.494Z,96951.09
2023-05-14T11:17:43.469Z,96950.56
2023-05-14T11:20:11.617Z,96948.53
2023-05-14T11:22:40.213Z,96940.69
2023-05-14T11:25:09.324Z,96937.84
2023-05-14T11:27:38.789Z,96938.50
2023-05-14T11:30:12.403Z,96935.97
2023-05-14T11:32:39.593Z,96941.13
2023-05-14T11:35:06.838Z,96934.78
2023-05-14T11:37:33.562Z,96932.78
2023-05-14T11:40:01.826Z,96930.28
2023-05-14T11:42:28.678Z,96927.56
2023-05-14T11:44:55.409Z,96927.03
2023-05-14T11:47:23.004Z,96930.00
2023-05-14T11:49:49.911Z,96926.97
2023-05-14T11:52:19.738Z,96921.91
2023-05-14T11:54:46.813Z,96920.56
2023-05-14T11:57:16.500Z,96915.03
2023-05-14T11:59:43.698Z,96918.34
2023-05-14T12:02:15.236Z,96913.84
2023-05-14T12:05:00.749Z,96914.13
2023-05-14T12:07:47.016Z,96909.00
2023-05-14T12:10:14.089Z,96908.38
2023-05-14T12:12:40.858Z,96899.09
2023-05-14T12:15:12.578Z,96897.25
2023-05-14T12:17:40.150Z,96894.97
2023-05-14T12:20:11.349Z,96896.25
2023-05-14T12:22:38.882Z,96884.13
2023-05-14T12:25:12.508Z,96888.88
2023-05-14T12:27:39.368Z,96886.22
2023-05-14T12:30:20.543Z,96883.31
2023-05-14T12:32:51.982Z,96876.44
2023-05-14T12:35:19.284Z,96874.78
2023-05-14T12:37:46.345Z,96875.78
2023-05-14T12:40:13.301Z,96866.44
2023-05-14T12:42:40.240Z,96867.88
2023-05-14T12:45:08.855Z,96865.03
2023-05-14T12:47:37.325Z,96854.66
2023-05-14T12:50:04.904Z,96858.91
2023-05-14T12:55:01.684Z,96855.91
2023-05-14T12:57:30.020Z,96849.75
2023-05-14T12:59:57.579Z,96849.66
2023-05-14T13:02:24.297Z,96841.31
2023-05-14T13:04:51.272Z,96839.47
2023-05-14T13:07:17.976Z,96841.00
2023-05-14T13:09:44.724Z,96836.97
2023-05-14T13:12:11.489Z,96833.72
2023-05-14T13:14:38.213Z,96831.63
2023-05-14T13:17:05.682Z,96834.97
2023-05-14T13:19:32.658Z,96818.63
2023-05-14T13:21:59.736Z,96826.28
2023-05-14T13:24:26.512Z,96826.19
2023-05-14T13:26:53.240Z,96829.78
2023-05-14T13:29:20.075Z,96822.78
2023-05-14T13:31:46.873Z,96820.84
2023-05-14T13:34:13.738Z,96827.84
2023-05-14T13:36:43.964Z,96824.16
2023-05-14T13:39:14.175Z,96829.13
2023-05-14T13:42:00.147Z,96814.19
2023-05-14T13:44:27.255Z,96818.66
2023-05-14T13:46:54.503Z,96813.41
2023-05-14T13:49:21.482Z,96815.53
2023-05-14T13:51:48.249Z,96813.06
2023-05-14T13:54:15.067Z,96808.16
2023-05-14T13:56:42.057Z,96805.09
2023-05-14T13:59:09.035Z,96805.78
2023-05-14T14:01:35.782Z,96804.72
2023-05-14T14:04:03.468Z,96802.16
2023-05-14T14:06:32.966Z,96806.00
2023-05-14T14:08:59.687Z,96801.00
2023-05-14T14:11:27.003Z,96798.31
2023-05-14T14:13:54.091Z,96796.16
2023-05-14T14:16:21.034Z,96791.53
2023-05-14T14:18:47.854Z,96779.31
2023-05-14T14:21:18.570Z,96779.69
2023-05-14T14:23:48.678Z,96778.69
2023-05-14T14:26:16.078Z,96781.56
2023-05-14T14:28:43.144Z,96775.53
2023-05-14T14:31:11.719Z,96774.16
2023-05-14T14:33:38.584Z,96766.00
2023-05-14T14:36:06.227Z,96764.91
2023-05-14T14:38:32.979Z,96771.75
2023-05-14T14:40:59.765Z,96768.50
2023-05-14T14:43:26.536Z,96765.31
2023-05-14T14:45:53.325Z,96764.13
2023-05-14T14:48:27.968Z,96761.06
2023-05-14T14:50:55.912Z,96753.09
2023-05-14T14:53:24.388Z,96751.19
2023-05-14T14:55:52.364Z,96751.25
2023-05-14T14:58:20.809Z,96772.44
2023-05-14T15:00:48.473Z,96778.28
2023-05-14T15:03:16.051Z,96781.69
2023-05-14T15:05:43.085Z,96785.13
2023-05-14T15:08:10.218Z,96786.31
2023-05-14T15:10:41.425Z,96799.00
2023-05-14T15:13:08.906Z,96811.69
2023-05-14T15:15:36.380Z,96819.91
2023-05-14T15:18:04.613Z,96819.28
2023-05-14T15:20:31.431Z,96826.00
2023-05-14T15:22:58.276Z,96821.88
2023-05-14T15:25:26.380Z,96819.38
2023-05-14T15:27:53.368Z,96821.41
2023-05-14T15:30:20.769Z,96822.59
2023-05-14T15:32:47.631Z,96829.13
2023-05-14T15:35:14.613Z,96837.31
2023-05-14T15:37:45.816Z,96840.16
2023-05-14T15:40:31.198Z,96837.69
2023-05-14T15:42:58.099Z,96836.03
2023-05-14T15:45:24.968Z,96844.22
2023-05-14T15:47:51.742Z,96839.06
2023-05-14T15:50:18.909Z,96841.72
2023-05-14T15:52:45.950Z,96837.41
2023-05-14T15:55:12.892Z,96839.25
2023-05-14T15:57:39.743Z,96841.91
2023-05-14T16:00:11.293Z,96840.06
2023-05-14T16:02:39.373Z,96843.56
2023-05-14T16:05:07.481Z,96852.56
2023-05-14T16:07:34.509Z,96854.22
2023-05-14T16:10:01.259Z,96863.22
2023-05-14T16:12:28.118Z,96860.56
2023-05-14T16:14:55.094Z,96859.91
2023-05-14T16:17:24.938Z,96861.94
2023-05-14T16:19:53.402Z,96875.41
2023-05-14T16:22:21.554Z,96871.28
2023-05-14T16:24:48.338Z,96866.13
2023-05-14T16:27:15.135Z,96873.47
2023-05-14T16:29:42.161Z,96877.97
2023-05-14T16:32:09.348Z,96868.34
2023-05-14T16:34:36.500Z,96873.03
2023-05-14T16:37:03.914Z,96876.50
2023-05-14T16:39:30.650Z,96871.38
2023-05-14T16:41:57.478Z,96871.38
2023-05-14T16:44:24.234Z,96879.34
2023-05-14T16:46:52.489Z,96869.72
2023-05-14T16:49:22.590Z,96875.22
2023-05-14T16:51:49.364Z,96872.09
2023-05-14T16:54:16.423Z,96865.28
2023-05-14T16:56:48.336Z,96868.97
2023-05-14T16:59:16.297Z,96862.16
2023-05-14T17:01:44.402Z,96853.34
2023-05-14T17:04:11.475Z,96858.84
2023-05-14T17:06:38.281Z,96862.53
2023-05-14T17:09:05.406Z,96855.34
2023-05-14T17:11:32.150Z,96864.19
2023-05-14T17:13:58.987Z,96861.69
2023-05-14T17:16:26.269Z,96854.72
2023-05-14T17:18:53.088Z,96856.56
2023-05-14T17:21:19.864Z,96862.06
2023-05-14T17:23:46.718Z,96862.06
2023-05-14T17:26:13.510Z,96855.91
2023-05-14T17:28:40.316Z,96851.59
2023-05-14T17:31:09.895Z,96855.25
2023-05-14T17:33:36.774Z,96853.59
2023-05-14T17:36:03.829Z,96850.94
2023-05-14T17:38:30.623Z,96857.09
2023-05-14T17:40:57.596Z,96863.44
2023-05-14T17:43:25.384Z,96862.59
2023-05-14T17:45:54.300Z,96859.09
2023-05-14T17:48:23.263Z,96856.44
2023-05-14T17:50:51.803Z,96858.28
2023-05-14T17:53:18.649Z,96855.63
2023-05-14T17:55:45.714Z,96853.97
2023-05-14T17:58:15.550Z,96854.78
2023-05-14T18:00:42.672Z,96851.31
2023-05-14T18:03:10.507Z,96852.31
2023-05-14T18:05:37.393Z,96852.50
2023-05-14T18:08:04.360Z,96855.34
2023-05-14T18:10:31.181Z,96852.66
2023-05-14T18:12:57.933Z,96846.91
2023-05-14T18:15:26.012Z,96859.03
2023-05-14T18:17:53.260Z,96857.38
2023-05-14T18:20:20.415Z,96850.41
2023-05-14T18:22:47.132Z,96843.41
2023-05-14T18:25:13.943Z,96852.41
2023-05-14T18:27:45.119Z,96850.75
2023-05-14T18:30:13.970Z,96850.75
2023-05-14T18:32:42.280Z,96862.41
2023-05-14T18:35:09.609Z,96854.59
2023-05-14T18:37:36.771Z,96848.63
2023-05-14T18:40:04.854Z,96856.81
2023-05-14T18:42:31.878Z,96851.66
2023-05-14T18:44:58.648Z,96846.34
2023-05-14T18:47:26.489Z,96842.84
2023-05-14T18:49:55.987Z,96848.34
2023-05-14T18:52:23.185Z,96854.69
2023-05-14T18:54:50.965Z,96847.69
2023-05-14T18:57:17.700Z,96857.53
2023-05-14T18:59:44.432Z,96853.19
2023-05-14T19:02:11.246Z,96856.03
2023-05-14T19:04:50.751Z,96859.53
2023-05-14T19:07:18.469Z,96860.72
2023-05-14T19:09:45.196Z,96871.56
2023-05-14T19:12:12.022Z,96877.88
2023-05-14T19:14:38.732Z,96877.06
2023-05-14T19:17:05.971Z,96874.56
2023-05-14T19:19:33.027Z,96872.91
2023-05-14T19:21:59.729Z,96872.09
2023-05-14T19:24:26.525Z,96864.28
2023-05-14T19:26:53.353Z,96867.94
2023-05-14T19:29:20.071Z,96880.59
2023-05-14T19:31:47.368Z,96880.59
2023-05-14T19:34:14.393Z,96879.94
2023-05-14T19:36:42.002Z,96874.63
2023-05-14T19:39:08.862Z,96879.31
2023-05-14T19:41:35.629Z,96871.50
2023-05-14T19:44:02.462Z,96872.50
2023-05-14T19:46:29.244Z,96875.34
2023-05-14T19:48:55.983Z,96870.16
2023-05-14T19:51:22.640Z,96873.00
2023-05-14T19:53:49.630Z,96881.16
2023-05-14T19:56:16.359Z,96875.00
2023-05-14T19:58:44.422Z,96867.22
2023-05-14T20:01:12.295Z,96863.06
2023-05-14T20:03:39.486Z,96872.88
2023-05-14T20:06:07.406Z,96873.06
2023-05-14T20:08:34.170Z,96870.41
2023-05-14T20:11:01.116Z,96875.25
2023-05-14T20:13:33.402Z,96876.06
2023-05-14T20:16:00.681Z,96874.41
2023-05-14T20:18:27.627Z,96877.25
2023-05-14T20:20:54.894Z,96875.41
2023-05-14T20:23:21.658Z,96872.09
2023-05-14T20:25:48.466Z,96875.59
2023-05-14T20:28:15.399Z,96885.59
2023-05-14T20:30:42.744Z,96879.63
2023-05-14T20:33:10.058Z,96869.81
2023-05-14T20:35:36.934Z,96877.13
2023-05-14T20:38:03.928Z,96870.97
2023-05-14T20:40:32.886Z,96871.16
2023-05-14T20:42:59.760Z,96859.03
2023-05-14T20:45:26.716Z,96868.84
2023-05-14T20:47:53.902Z,96867.84
2023-05-14T20:50:21.748Z,96861.88
2023-05-14T20:52:48.618Z,96860.22
2023-05-14T20:55:15.444Z,96853.06
2023-05-14T20:57:43.613Z,96856.91
2023-05-14T21:00:11.299Z,96850.75
2023-05-14T21:02:38.154Z,96849.97
2023-05-14T21:05:05.682Z,96847.31
2023-05-14T21:07:32.528Z,96842.34
2023-05-14T21:09:59.582Z,96838.00
2023-05-14T21:12:26.362Z,96839.84
2023-05-14T21:14:53.173Z,96833.69
2023-05-14T21:17:19.948Z,96839.03
2023-05-14T21:19:46.662Z,96835.53
2023-05-14T21:22:13.702Z,96837.53
2023-05-14T21:24:40.440Z,96835.72
2023-05-14T21:27:07.161Z,96848.19
2023-05-14T21:29:33.968Z,96846.53
2023-05-14T21:32:00.847Z,96851.00
2023-05-14T21:34:28.673Z,96849.34
2023-05-14T21:36:56.465Z,96847.88
2023-05-14T21:39:23.215Z,96863.66
2023-05-14T21:41:50.007Z,96849.88
2023-05-14T21:44:16.804Z,96848.06
2023-05-14T21:46:43.768Z,96850.72
2023-05-14T21:49:10.472Z,96848.41
2023-05-14T21:51:37.270Z,96857.22
2023-05-14T21:54:04.180Z,96853.72
2023-05-14T21:56:31.110Z,96849.22
2023-05-14T21:58:57.959Z,96844.09
2023-05-14T22:01:24.763Z,96835.09
2023-05-14T22:03:51.636Z,96841.59
2023-05-14T22:06:18.466Z,96829.13
2023-05-14T22:08:45.166Z,96848.94
2023-05-14T22:11:11.922Z,96839.28
2023-05-14T22:13:41.156Z,96836.81
2023-05-14T22:16:13.813Z,96838.47
2023-05-14T22:18:42.102Z,96835.97
2023-05-14T22:21:09.212Z,96831.50
2023-05-14T22:23:36.332Z,96838.81
2023-05-14T22:26:03.292Z,96838.81
2023-05-14T22:28:30.112Z,96845.13
2023-05-14T22:30:59.866Z,96839.00
2023-05-14T22:33:26.741Z,96823.22
2023-05-14T22:35:53.501Z,96820.72
2023-05-14T22:38:20.568Z,96817.25
2023-05-14T22:40:47.363Z,96827.69
2023-05-14T22:43:14.570Z,96821.72
2023-05-14T22:45:41.359Z,96832.34
2023-05-14T22:48:08.231Z,96816.59
2023-05-14T22:50:34.949Z,96812.28
2023-05-14T22:53:01.655Z,96817.41
2023-05-14T22:55:28.565Z,96816.94
2023-05-14T22:57:56.305Z,96803.66
2023-05-14T23:00:23.150Z,96814.44
2023-05-14T23:02:49.956Z,96804.66
2023-05-14T23:05:16.835Z,96815.28
2023-05-14T23:07:43.883Z,96809.13
2023-05-14T23:10:11.580Z,96801.34
2023-05-14T23:12:38.366Z,96806.66
2023-05-14T23:15:05.628Z,96806.81
2023-05-14T23:17:32.595Z,96798.03
2023-05-14T23:19:59.312Z,96806.81
2023-05-14T23:22:26.021Z,96797.03
2023-05-14T23:24:52.717Z,96793.72
2023-05-14T23:27:19.463Z,96788.38
2023-05-14T23:29:46.153Z,96790.22
2023-05-14T23:32:13.163Z,96788.56
2023-05-14T23:34:39.946Z,96778.94
2023-05-14T23:37:06.740Z,96770.31
2023-05-14T23:39:33.622Z,96771.97
2023-05-14T23:42:00.317Z,96770.31
2023-05-14T23:44:27.175Z,96764.16
2023-05-14T23:46:54.034Z,96757.19
2023-05-14T23:49:20.924Z,96761.50
2023-05-14T23:51:47.653Z,96758.19
2023-05-14T23:54:14.523Z,96765.53
2023-05-14T23:56:41.272Z,96756.72
2023-05-14T23:59:08.088Z,96746.09
